createdAt,value
2019-01-30T00:00:41.376Z,997.23
2019-01-30T00:01:41.305Z,997.22
2019-01-30T00:02:41.081Z,997.17
2019-01-30T00:03:41.068Z,997.1
2019-01-30T00:04:41.238Z,997.11
2019-01-30T00:05:41.164Z,997.08
2019-01-30T00:06:41.221Z,997.06
2019-01-30T00:07:41.115Z,997.04
2019-01-30T00:08:41.133Z,997
2019-01-30T00:09:41.154Z,997
2019-01-30T00:10:41.223Z,996.91
2019-01-30T00:11:41.122Z,996.96
2019-01-30T00:12:41.373Z,996.92
2019-01-30T00:13:41.576Z,996.87
2019-01-30T00:14:41.222Z,996.92
2019-01-30T00:15:41.096Z,996.88
2019-01-30T00:16:41.236Z,996.84
2019-01-30T00:17:41.434Z,996.81
2019-01-30T00:18:41.039Z,996.83
2019-01-30T00:19:41.042Z,996.74
2019-01-30T00:20:41.524Z,996.75
2019-01-30T00:21:41.018Z,996.72
2019-01-30T00:22:41.280Z,996.75
2019-01-30T00:23:41.123Z,996.71
2019-01-30T00:24:41.129Z,996.72
2019-01-30T00:25:41.156Z,996.7
2019-01-30T00:26:41.040Z,996.7
2019-01-30T00:27:41.068Z,996.68
2019-01-30T00:28:41.106Z,996.68
2019-01-30T00:29:41.023Z,996.67
2019-01-30T00:30:41.118Z,996.66
2019-01-30T00:31:41.107Z,996.62
2019-01-30T00:32:41.121Z,996.65
2019-01-30T00:33:41.438Z,996.6
2019-01-30T00:34:41.186Z,996.63
2019-01-30T00:35:41.170Z,996.59
2019-01-30T00:36:41.163Z,996.54
2019-01-30T00:37:41.220Z,996.52
2019-01-30T00:38:42.857Z,996.5
2019-01-30T00:39:41.536Z,996.46
2019-01-30T00:40:41.592Z,996.48
2019-01-30T00:41:41.005Z,996.46
2019-01-30T00:42:41.155Z,996.43
2019-01-30T00:43:41.264Z,996.42
2019-01-30T00:44:41.530Z,996.46
2019-01-30T00:45:41.396Z,996.35
2019-01-30T00:46:41.007Z,996.4
2019-01-30T00:47:41.318Z,996.41
2019-01-30T00:48:41.419Z,996.41
2019-01-30T00:49:41.313Z,996.4
2019-01-30T00:50:42.830Z,996.37
2019-01-30T00:51:42.000Z,996.4
2019-01-30T00:52:41.660Z,996.3
2019-01-30T00:53:41.119Z,996.25
2019-01-30T00:54:42.827Z,996.31
2019-01-30T00:55:41.274Z,996.25
2019-01-30T00:56:41.570Z,996.25
2019-01-30T00:57:41.254Z,996.25
2019-01-30T00:58:41.034Z,996.22
2019-01-30T00:59:41.491Z,996.22
2019-01-30T01:00:41.736Z,996.19
2019-01-30T01:01:41.129Z,996.16
2019-01-30T01:02:40.991Z,996.14
2019-01-30T01:03:40.960Z,996.14
2019-01-30T01:04:41.535Z,996.1
2019-01-30T01:05:41.024Z,996.06
2019-01-30T01:06:41.215Z,996.03
2019-01-30T01:07:41.353Z,996.03
2019-01-30T01:08:41.240Z,996.04
2019-01-30T01:09:41.019Z,996.01
2019-01-30T01:10:41.264Z,996.01
2019-01-30T01:11:41.262Z,995.96
2019-01-30T01:12:41.051Z,995.89
2019-01-30T01:13:40.978Z,995.98
2019-01-30T01:14:41.286Z,995.94
2019-01-30T01:15:41.079Z,995.91
2019-01-30T01:16:41.406Z,995.9
2019-01-30T01:17:40.997Z,995.91
2019-01-30T01:18:41.213Z,995.92
2019-01-30T01:19:41.018Z,995.95
2019-01-30T01:20:41.446Z,995.94
2019-01-30T01:21:41.751Z,995.97
2019-01-30T01:22:40.998Z,995.88
2019-01-30T01:23:41.064Z,995.91
2019-01-30T01:24:41.470Z,995.94
2019-01-30T01:25:41.256Z,995.89
2019-01-30T01:26:41.138Z,995.91
2019-01-30T01:27:40.978Z,995.91
2019-01-30T01:28:41.275Z,995.91
2019-01-30T01:29:41.409Z,995.96
2019-01-30T01:30:41.060Z,995.9
2019-01-30T01:31:40.957Z,995.88
2019-01-30T01:32:41.249Z,995.85
2019-01-30T01:33:41.223Z,995.86
2019-01-30T01:34:41.114Z,995.85
2019-01-30T01:35:40.961Z,995.82
2019-01-30T01:36:41.090Z,995.82
2019-01-30T01:37:40.980Z,995.76
2019-01-30T01:38:41.015Z,995.77
2019-01-30T01:39:40.946Z,995.75
2019-01-30T01:40:41.244Z,995.74
2019-01-30T01:41:41.265Z,995.74
2019-01-30T01:42:41.055Z,995.67
2019-01-30T01:43:41.166Z,995.63
2019-01-30T01:44:41.174Z,995.63
2019-01-30T01:45:40.983Z,995.61
2019-01-30T01:46:41.192Z,995.64
2019-01-30T01:47:41.409Z,995.56
2019-01-30T01:48:41.212Z,995.49
2019-01-30T01:49:40.941Z,995.49
2019-01-30T01:50:41.071Z,995.43
2019-01-30T01:51:41.544Z,995.48
2019-01-30T01:52:41.129Z,995.45
2019-01-30T01:53:40.961Z,995.43
2019-01-30T01:54:41.272Z,995.4
2019-01-30T01:55:40.901Z,995.37
2019-01-30T01:56:41.010Z,995.42
2019-01-30T01:57:40.944Z,995.38
2019-01-30T01:58:41.815Z,995.31
2019-01-30T01:59:41.007Z,995.32
2019-01-30T02:00:41.010Z,995.27
2019-01-30T02:01:41.018Z,995.23
2019-01-30T02:02:41.056Z,995.22
2019-01-30T02:03:41.037Z,995.17
2019-01-30T02:04:41.415Z,995.11
2019-01-30T02:05:41.037Z,995.05
2019-01-30T02:06:41.136Z,995.02
2019-01-30T02:07:40.975Z,995.01
2019-01-30T02:08:41.146Z,995
2019-01-30T02:09:41.066Z,994.97
2019-01-30T02:10:40.931Z,994.93
2019-01-30T02:11:41.589Z,994.92
2019-01-30T02:12:40.990Z,994.89
2019-01-30T02:13:40.953Z,994.86
2019-01-30T02:14:40.955Z,994.85
2019-01-30T02:15:41.430Z,994.76
2019-01-30T02:16:40.945Z,994.75
2019-01-30T02:17:40.997Z,994.78
2019-01-30T02:18:40.852Z,994.69
2019-01-30T02:19:40.970Z,994.71
2019-01-30T02:20:41.123Z,994.69
2019-01-30T02:21:41.023Z,994.71
2019-01-30T02:22:41.150Z,994.65
2019-01-30T02:23:40.974Z,994.61
2019-01-30T02:24:41.038Z,994.6
2019-01-30T02:25:40.944Z,994.58
2019-01-30T02:26:41.276Z,994.52
2019-01-30T02:27:40.853Z,994.54
2019-01-30T02:28:41.393Z,994.46
2019-01-30T02:29:40.830Z,994.49
2019-01-30T02:30:47.897Z,994.52
2019-01-30T02:31:41.751Z,994.5
2019-01-30T02:32:41.115Z,994.5
2019-01-30T02:33:41.428Z,994.5
2019-01-30T02:34:41.715Z,994.43
2019-01-30T02:35:40.868Z,994.39
2019-01-30T02:36:41.040Z,994.4
2019-01-30T02:37:41.017Z,994.37
2019-01-30T02:38:41.146Z,994.37
2019-01-30T02:39:42.638Z,994.34
2019-01-30T02:40:41.166Z,994.33
2019-01-30T02:41:40.826Z,994.3
2019-01-30T02:42:41.292Z,994.3
2019-01-30T02:43:40.925Z,994.26
2019-01-30T02:44:41.021Z,994.3
2019-01-30T02:45:41.104Z,994.3
2019-01-30T02:46:40.971Z,994.31
2019-01-30T02:47:40.870Z,994.28
2019-01-30T02:48:41.105Z,994.31
2019-01-30T02:49:41.370Z,994.28
2019-01-30T02:50:40.976Z,994.28
2019-01-30T02:51:40.837Z,994.31
2019-01-30T02:52:40.953Z,994.25
2019-01-30T02:53:40.919Z,994.22
2019-01-30T02:54:40.825Z,994.21
2019-01-30T02:55:42.620Z,994.25
2019-01-30T02:56:41.176Z,994.23
2019-01-30T02:57:41.095Z,994.25
2019-01-30T02:58:40.864Z,994.21
2019-01-30T02:59:41.194Z,994.19
2019-01-30T03:00:41.070Z,994.23
2019-01-30T03:01:40.814Z,994.2
2019-01-30T03:02:41.232Z,994.19
2019-01-30T03:03:40.987Z,994.16
2019-01-30T03:04:41.120Z,994.17
2019-01-30T03:05:40.891Z,994.14
2019-01-30T03:06:40.790Z,994.15
2019-01-30T03:07:41.047Z,994.14
2019-01-30T03:08:41.267Z,994.18
2019-01-30T03:09:41.476Z,994.11
2019-01-30T03:10:41.086Z,994.05
2019-01-30T03:11:41.091Z,994.02
2019-01-30T03:12:41.295Z,994.02
2019-01-30T03:13:40.985Z,993.95
2019-01-30T03:14:40.859Z,993.91
2019-01-30T03:15:40.808Z,993.92
2019-01-30T03:16:40.909Z,993.94
2019-01-30T03:17:41.290Z,993.9
2019-01-30T03:18:40.939Z,993.89
2019-01-30T03:19:40.767Z,993.88
2019-01-30T03:20:40.744Z,993.83
2019-01-30T03:21:41.167Z,993.82
2019-01-30T03:22:41.305Z,993.83
2019-01-30T03:23:41.178Z,993.85
2019-01-30T03:24:41.158Z,993.81
2019-01-30T03:25:41.386Z,993.71
2019-01-30T03:26:41.070Z,993.76
2019-01-30T03:27:41.628Z,993.77
2019-01-30T03:28:41.188Z,993.77
2019-01-30T03:29:40.936Z,993.79
2019-01-30T03:30:40.736Z,993.82
2019-01-30T03:31:40.778Z,993.88
2019-01-30T03:32:40.736Z,993.9
2019-01-30T03:33:40.772Z,993.94
2019-01-30T03:34:41.131Z,993.95
2019-01-30T03:35:40.822Z,993.97
2019-01-30T03:36:41.035Z,994
2019-01-30T03:37:40.997Z,993.98
2019-01-30T03:38:40.919Z,993.9
2019-01-30T03:39:40.772Z,993.94
2019-01-30T03:40:41.187Z,993.94
2019-01-30T03:41:40.796Z,993.96
2019-01-30T03:42:40.863Z,993.99
2019-01-30T03:43:40.819Z,994
2019-01-30T03:44:40.994Z,994.01
2019-01-30T03:45:40.781Z,993.98
2019-01-30T03:46:40.806Z,993.94
2019-01-30T03:47:40.730Z,993.92
2019-01-30T03:48:40.714Z,993.89
2019-01-30T03:49:41.019Z,993.86
2019-01-30T03:50:40.880Z,993.86
2019-01-30T03:51:40.732Z,993.88
2019-01-30T03:52:40.708Z,993.9
2019-01-30T03:53:40.776Z,993.9
2019-01-30T03:54:40.738Z,993.92
2019-01-30T03:55:40.808Z,993.9
2019-01-30T03:56:40.794Z,993.85
2019-01-30T03:57:40.880Z,993.85
2019-01-30T03:58:41.215Z,993.79
2019-01-30T03:59:41.103Z,993.8
2019-01-30T04:00:41.007Z,993.81
2019-01-30T04:01:40.749Z,993.79
2019-01-30T04:02:40.855Z,993.82
2019-01-30T04:03:41.008Z,993.85
2019-01-30T04:04:41.289Z,993.86
2019-01-30T04:05:41.056Z,993.9
2019-01-30T04:06:41.037Z,993.87
2019-01-30T04:07:40.797Z,993.92
2019-01-30T04:08:40.696Z,993.95
2019-01-30T04:09:40.987Z,993.97
2019-01-30T04:10:40.962Z,993.96
2019-01-30T04:11:41.075Z,993.97
2019-01-30T04:12:40.700Z,993.96
2019-01-30T04:13:40.685Z,993.95
2019-01-30T04:14:40.716Z,993.91
2019-01-30T04:15:41.013Z,993.95
2019-01-30T04:16:41.414Z,994
2019-01-30T04:17:41.028Z,993.96
2019-01-30T04:18:40.812Z,993.99
2019-01-30T04:19:41.234Z,994.02
2019-01-30T04:20:40.783Z,993.96
2019-01-30T04:21:40.762Z,993.97
2019-01-30T04:22:40.948Z,993.94
2019-01-30T04:23:40.707Z,993.88
2019-01-30T04:24:40.948Z,993.91
2019-01-30T04:25:41.095Z,993.89
2019-01-30T04:26:40.812Z,993.84
2019-01-30T04:27:40.750Z,993.86
2019-01-30T04:28:41.086Z,993.85
2019-01-30T04:29:40.878Z,993.83
2019-01-30T04:30:40.784Z,993.86
2019-01-30T04:31:40.817Z,993.77
2019-01-30T04:32:41.027Z,993.81
2019-01-30T04:33:40.754Z,993.77
2019-01-30T04:34:41.177Z,993.75
2019-01-30T04:35:40.623Z,993.71
2019-01-30T04:36:40.780Z,993.69
2019-01-30T04:37:40.785Z,993.68
2019-01-30T04:38:40.641Z,993.66
2019-01-30T04:39:40.690Z,993.56
2019-01-30T04:40:40.880Z,993.52
2019-01-30T04:41:40.699Z,993.55
2019-01-30T04:42:41.088Z,993.54
2019-01-30T04:43:40.779Z,993.56
2019-01-30T04:44:40.665Z,993.55
2019-01-30T04:45:40.860Z,993.49
2019-01-30T04:46:41.010Z,993.54
2019-01-30T04:47:40.791Z,993.53
2019-01-30T04:48:40.651Z,993.52
2019-01-30T04:49:40.638Z,993.47
2019-01-30T04:50:40.863Z,993.44
2019-01-30T04:51:41.054Z,993.46
2019-01-30T04:52:40.642Z,993.42
2019-01-30T04:53:40.832Z,993.44
2019-01-30T04:54:41.079Z,993.4
2019-01-30T04:55:40.591Z,993.39
2019-01-30T04:56:40.595Z,993.4
2019-01-30T04:57:40.881Z,993.38
2019-01-30T04:58:40.816Z,993.36
2019-01-30T04:59:40.762Z,993.34
2019-01-30T05:00:41.629Z,993.38
2019-01-30T05:01:50.140Z,993.45
2019-01-30T05:02:40.969Z,993.44
2019-01-30T05:03:40.656Z,993.42
2019-01-30T05:04:40.769Z,993.42
2019-01-30T05:05:40.837Z,993.43
2019-01-30T05:06:40.658Z,993.34
2019-01-30T05:07:40.766Z,993.38
2019-01-30T05:08:40.731Z,993.36
2019-01-30T05:09:40.710Z,993.25
2019-01-30T05:10:40.738Z,993.29
2019-01-30T05:11:41.101Z,993.27
2019-01-30T05:12:40.615Z,993.2
2019-01-30T05:13:40.620Z,993.23
2019-01-30T05:14:40.585Z,993.16
2019-01-30T05:15:40.690Z,993.05
2019-01-30T05:16:40.628Z,993.15
2019-01-30T05:17:40.587Z,993.16
2019-01-30T05:18:40.658Z,993.12
2019-01-30T05:19:40.755Z,993.08
2019-01-30T05:20:40.584Z,993.08
2019-01-30T05:21:40.849Z,993.05
2019-01-30T05:22:41.079Z,993.01
2019-01-30T05:23:40.598Z,992.98
2019-01-30T05:24:40.658Z,993.01
2019-01-30T05:25:40.899Z,992.99
2019-01-30T05:26:40.774Z,992.94
2019-01-30T05:27:41.043Z,992.89
2019-01-30T05:28:40.601Z,992.84
2019-01-30T05:29:40.670Z,992.85
2019-01-30T05:30:41.444Z,992.86
2019-01-30T05:31:40.633Z,992.84
2019-01-30T05:32:40.532Z,992.85
2019-01-30T05:33:41.246Z,992.83
2019-01-30T05:34:40.601Z,992.79
2019-01-30T05:35:40.585Z,992.78
2019-01-30T05:36:40.621Z,992.81
2019-01-30T05:37:40.865Z,992.78
2019-01-30T05:38:40.748Z,992.8
2019-01-30T05:39:40.717Z,992.78
2019-01-30T05:40:41.185Z,992.8
2019-01-30T05:41:41.741Z,992.82
2019-01-30T05:42:41.699Z,992.83
2019-01-30T05:43:42.705Z,992.78
2019-01-30T05:44:40.925Z,992.8
2019-01-30T05:45:41.931Z,992.86
2019-01-30T05:46:40.886Z,992.79
2019-01-30T05:47:41.531Z,992.79
2019-01-30T05:48:40.787Z,992.75
2019-01-30T05:49:42.577Z,992.71
2019-01-30T05:50:40.566Z,992.79
2019-01-30T05:51:40.675Z,992.74
2019-01-30T05:52:40.562Z,992.73
2019-01-30T05:53:41.171Z,992.7
2019-01-30T05:54:41.059Z,992.67
2019-01-30T05:55:40.623Z,992.67
2019-01-30T05:56:40.625Z,992.61
2019-01-30T05:57:40.578Z,992.63
2019-01-30T05:58:40.675Z,992.59
2019-01-30T05:59:40.630Z,992.68
2019-01-30T06:00:40.947Z,992.77
2019-01-30T06:01:40.701Z,992.75
2019-01-30T06:02:40.550Z,992.73
2019-01-30T06:03:40.636Z,992.7
2019-01-30T06:04:40.533Z,992.65
2019-01-30T06:05:41.057Z,992.65
2019-01-30T06:06:40.848Z,992.64
2019-01-30T06:07:40.583Z,992.64
2019-01-30T06:08:40.805Z,992.59
2019-01-30T06:09:40.656Z,992.67
2019-01-30T06:10:40.793Z,992.65
2019-01-30T06:11:40.543Z,992.56
2019-01-30T06:12:41.601Z,992.56
2019-01-30T06:13:40.781Z,992.52
2019-01-30T06:14:40.652Z,992.49
2019-01-30T06:15:40.464Z,992.49
2019-01-30T06:16:40.489Z,992.42
2019-01-30T06:17:42.325Z,992.4
2019-01-30T06:18:40.722Z,992.36
2019-01-30T06:19:40.473Z,992.35
2019-01-30T06:20:40.619Z,992.43
2019-01-30T06:21:40.502Z,992.41
2019-01-30T06:22:41.176Z,992.41
2019-01-30T06:23:40.569Z,992.38
2019-01-30T06:24:40.985Z,992.42
2019-01-30T06:25:40.511Z,992.4
2019-01-30T06:26:40.519Z,992.45
2019-01-30T06:27:40.882Z,992.4
2019-01-30T06:28:41.149Z,992.37
2019-01-30T06:29:41.124Z,992.58
2019-01-30T06:30:40.466Z,992.48
2019-01-30T06:31:40.682Z,992.51
2019-01-30T06:32:40.710Z,992.51
2019-01-30T06:33:40.589Z,992.47
2019-01-30T06:34:40.520Z,992.46
2019-01-30T06:35:40.735Z,992.49
2019-01-30T06:36:40.517Z,992.51
2019-01-30T06:37:41.056Z,992.5
2019-01-30T06:38:40.882Z,992.51
2019-01-30T06:39:40.767Z,992.5
2019-01-30T06:40:40.949Z,992.5
2019-01-30T06:41:42.284Z,992.45
2019-01-30T06:42:40.685Z,992.49
2019-01-30T06:43:40.791Z,992.48
2019-01-30T06:44:40.546Z,992.5
2019-01-30T06:45:42.295Z,992.5
2019-01-30T06:46:41.145Z,992.57
2019-01-30T06:47:40.715Z,992.53
2019-01-30T06:48:40.536Z,992.48
2019-01-30T06:49:40.489Z,992.42
2019-01-30T06:50:43.892Z,992.52
2019-01-30T06:51:40.463Z,992.39
2019-01-30T06:52:40.531Z,992.48
2019-01-30T06:53:40.452Z,992.49
2019-01-30T06:54:41.272Z,992.42
2019-01-30T06:55:40.477Z,992.46
2019-01-30T06:56:40.427Z,992.48
2019-01-30T06:57:40.517Z,992.42
2019-01-30T06:58:40.713Z,992.42
2019-01-30T06:59:40.420Z,992.51
2019-01-30T07:00:40.426Z,992.52
2019-01-30T07:01:40.459Z,992.59
2019-01-30T07:02:41.038Z,992.67
2019-01-30T07:03:40.632Z,992.6
2019-01-30T07:04:40.479Z,992.48
2019-01-30T07:05:40.443Z,992.5
2019-01-30T07:06:40.745Z,992.5
2019-01-30T07:07:40.422Z,992.49
2019-01-30T07:08:40.797Z,992.59
2019-01-30T07:09:40.462Z,992.58
2019-01-30T07:10:40.441Z,992.51
2019-01-30T07:11:40.491Z,992.4
2019-01-30T07:12:40.511Z,992.39
2019-01-30T07:13:40.508Z,992.46
2019-01-30T07:14:40.468Z,992.55
2019-01-30T07:15:40.699Z,992.51
2019-01-30T07:16:40.389Z,992.48
2019-01-30T07:17:41.226Z,992.59
2019-01-30T07:18:40.443Z,992.56
2019-01-30T07:19:40.423Z,992.59
2019-01-30T07:20:40.441Z,992.69
2019-01-30T07:21:40.759Z,992.54
2019-01-30T07:22:40.433Z,992.63
2019-01-30T07:23:40.366Z,992.71
2019-01-30T07:24:40.984Z,992.75
2019-01-30T07:25:40.903Z,992.83
2019-01-30T07:26:40.521Z,992.81
2019-01-30T07:27:40.604Z,992.72
2019-01-30T07:28:40.403Z,992.75
2019-01-30T07:29:40.471Z,992.74
2019-01-30T07:30:40.445Z,992.75
2019-01-30T07:31:40.710Z,992.75
2019-01-30T07:32:42.604Z,992.79
2019-01-30T07:33:40.440Z,992.84
2019-01-30T07:34:40.370Z,992.89
2019-01-30T07:35:40.497Z,992.88
2019-01-30T07:36:40.509Z,992.89
2019-01-30T07:37:42.502Z,992.86
2019-01-30T07:38:41.448Z,992.87
2019-01-30T07:39:40.345Z,992.93
2019-01-30T07:40:42.202Z,992.91
2019-01-30T07:41:40.402Z,992.86
2019-01-30T07:42:40.697Z,992.87
2019-01-30T07:43:40.717Z,992.88
2019-01-30T07:44:51.150Z,992.93
2019-01-30T07:45:40.397Z,992.93
2019-01-30T07:46:40.715Z,992.96
2019-01-30T07:47:40.438Z,992.99
2019-01-30T07:48:40.423Z,992.97
2019-01-30T07:49:40.371Z,992.96
2019-01-30T07:50:40.747Z,992.8
2019-01-30T07:51:40.765Z,992.88
2019-01-30T07:52:40.445Z,992.95
2019-01-30T07:53:40.664Z,993.02
2019-01-30T07:54:40.503Z,993.06
2019-01-30T07:55:40.565Z,993
2019-01-30T07:56:40.443Z,992.98
2019-01-30T07:57:40.582Z,992.98
2019-01-30T07:58:40.350Z,992.98
2019-01-30T07:59:40.420Z,993.04
2019-01-30T08:00:40.323Z,993.06
2019-01-30T08:01:42.173Z,993.08
2019-01-30T08:02:53.693Z,993.13
2019-01-30T08:03:40.753Z,993.12
2019-01-30T08:04:40.732Z,993.08
2019-01-30T08:05:40.370Z,993.11
2019-01-30T08:06:41.571Z,993.21
2019-01-30T08:07:40.760Z,993.25
2019-01-30T08:08:40.742Z,993.18
2019-01-30T08:09:41.208Z,993.21
2019-01-30T08:10:40.362Z,993.23
2019-01-30T08:11:40.444Z,993.21
2019-01-30T08:12:40.702Z,993.22
2019-01-30T08:13:40.697Z,993.24
2019-01-30T08:14:40.701Z,993.27
2019-01-30T08:15:40.347Z,993.27
2019-01-30T08:16:40.511Z,993.32
2019-01-30T08:17:40.450Z,993.3
2019-01-30T08:18:40.856Z,993.33
2019-01-30T08:19:40.300Z,993.4
2019-01-30T08:20:40.431Z,993.38
2019-01-30T08:21:40.446Z,993.29
2019-01-30T08:22:42.136Z,993.33
2019-01-30T08:23:40.866Z,993.28
2019-01-30T08:24:41.141Z,993.35
2019-01-30T08:25:40.230Z,993.39
2019-01-30T08:26:40.334Z,993.45
2019-01-30T08:27:40.744Z,993.4
2019-01-30T08:28:40.997Z,993.41
2019-01-30T08:29:40.546Z,993.36
2019-01-30T08:30:40.398Z,993.4
2019-01-30T08:31:40.448Z,993.39
2019-01-30T08:32:41.436Z,993.38
2019-01-30T08:33:40.412Z,993.37
2019-01-30T08:34:40.291Z,993.39
2019-01-30T08:35:40.281Z,993.42
2019-01-30T08:36:40.389Z,993.4
2019-01-30T08:37:40.499Z,993.43
2019-01-30T08:38:40.429Z,993.41
2019-01-30T08:39:40.353Z,993.37
2019-01-30T08:40:40.302Z,993.43
2019-01-30T08:41:40.427Z,993.38
2019-01-30T08:42:40.382Z,993.39
2019-01-30T08:43:40.304Z,993.36
2019-01-30T08:44:47.391Z,993.36
2019-01-30T08:45:40.505Z,993.35
2019-01-30T08:46:40.270Z,993.31
2019-01-30T08:47:40.246Z,993.37
2019-01-30T08:48:40.474Z,993.41
2019-01-30T08:49:40.439Z,993.38
2019-01-30T08:50:40.328Z,993.39
2019-01-30T08:51:40.415Z,993.34
2019-01-30T08:52:41.765Z,993.35
2019-01-30T08:53:40.656Z,993.3
2019-01-30T08:54:40.247Z,993.3
2019-01-30T08:55:40.585Z,993.33
2019-01-30T08:56:53.297Z,993.36
2019-01-30T08:57:40.631Z,993.34
2019-01-30T08:58:40.247Z,993.32
2019-01-30T08:59:40.238Z,993.36
2019-01-30T09:00:40.273Z,993.35
2019-01-30T09:01:40.457Z,993.38
2019-01-30T09:02:40.517Z,993.34
2019-01-30T09:03:40.319Z,993.3
2019-01-30T09:04:40.328Z,993.35
2019-01-30T09:05:40.448Z,993.29
2019-01-30T09:06:40.340Z,993.27
2019-01-30T09:07:44.777Z,993.33
2019-01-30T09:08:40.310Z,993.27
2019-01-30T09:09:40.461Z,993.32
2019-01-30T09:10:40.293Z,993.28
2019-01-30T09:11:40.662Z,993.25
2019-01-30T09:12:40.498Z,993.22
2019-01-30T09:13:40.400Z,993.32
2019-01-30T09:14:40.397Z,993.32
2019-01-30T09:15:40.294Z,993.28
2019-01-30T09:16:40.239Z,993.28
2019-01-30T09:17:40.224Z,993.25
2019-01-30T09:18:40.532Z,993.28
2019-01-30T09:19:40.291Z,993.26
2019-01-30T09:20:40.245Z,993.29
2019-01-30T09:21:40.870Z,993.32
2019-01-30T09:22:40.220Z,993.29
2019-01-30T09:23:43.094Z,993.29
2019-01-30T09:24:40.208Z,993.29
2019-01-30T09:25:42.003Z,993.29
2019-01-30T09:26:40.597Z,993.25
2019-01-30T09:27:40.425Z,993.28
2019-01-30T09:28:40.211Z,993.3
2019-01-30T09:29:40.211Z,993.29
2019-01-30T09:30:40.379Z,993.28
2019-01-30T09:31:40.208Z,993.34
2019-01-30T09:32:40.675Z,993.29
2019-01-30T09:33:40.196Z,993.29
2019-01-30T09:34:40.437Z,993.3
2019-01-30T09:35:40.440Z,993.29
2019-01-30T09:36:40.437Z,993.28
2019-01-30T09:37:41.044Z,993.22
2019-01-30T09:38:40.917Z,993.29
2019-01-30T09:39:40.229Z,993.32
2019-01-30T09:40:40.614Z,993.3
2019-01-30T09:41:40.194Z,993.3
2019-01-30T09:42:40.221Z,993.34
2019-01-30T09:43:40.220Z,993.33
2019-01-30T09:44:40.580Z,993.31
2019-01-30T09:45:40.852Z,993.34
2019-01-30T09:46:40.382Z,993.35
2019-01-30T09:47:40.524Z,993.39
2019-01-30T09:48:40.528Z,993.45
2019-01-30T09:49:40.723Z,993.48
2019-01-30T09:50:40.198Z,993.49
2019-01-30T09:51:40.203Z,993.47
2019-01-30T09:52:41.015Z,993.44
2019-01-30T09:53:40.200Z,993.47
2019-01-30T09:54:40.306Z,993.47
2019-01-30T09:55:40.389Z,993.45
2019-01-30T09:56:40.500Z,993.45
2019-01-30T09:57:40.398Z,993.43
2019-01-30T09:58:40.162Z,993.5
2019-01-30T09:59:40.275Z,993.56
2019-01-30T10:00:40.145Z,993.52
2019-01-30T10:01:40.110Z,993.52
2019-01-30T10:02:40.261Z,993.54
2019-01-30T10:03:40.442Z,993.56
2019-01-30T10:04:40.308Z,993.57
2019-01-30T10:05:40.141Z,993.56
2019-01-30T10:06:40.327Z,993.52
2019-01-30T10:07:40.763Z,993.51
2019-01-30T10:08:40.222Z,993.56
2019-01-30T10:09:40.100Z,993.57
2019-01-30T10:10:40.426Z,993.56
2019-01-30T10:11:40.402Z,993.56
2019-01-30T10:12:40.266Z,993.57
2019-01-30T10:13:40.592Z,993.59
2019-01-30T10:14:41.010Z,993.61
2019-01-30T10:15:40.143Z,993.62
2019-01-30T10:16:40.344Z,993.62
2019-01-30T10:17:40.436Z,993.56
2019-01-30T10:18:40.192Z,993.56
2019-01-30T10:19:41.986Z,993.59
2019-01-30T10:20:40.177Z,993.58
2019-01-30T10:21:40.186Z,993.56
2019-01-30T10:22:40.158Z,993.64
2019-01-30T10:23:40.294Z,993.65
2019-01-30T10:25:40.291Z,993.61
2019-01-30T10:26:40.160Z,993.67
2019-01-30T10:27:40.220Z,993.63
2019-01-30T10:28:40.182Z,993.63
2019-01-30T10:29:40.498Z,993.64
2019-01-30T10:30:40.324Z,993.65
2019-01-30T10:31:40.098Z,993.68
2019-01-30T10:32:40.286Z,993.64
2019-01-30T10:33:46.920Z,993.61
2019-01-30T10:34:40.255Z,993.64
2019-01-30T10:35:40.158Z,993.67
2019-01-30T10:36:40.796Z,993.68
2019-01-30T10:37:40.787Z,993.65
2019-01-30T10:38:40.126Z,993.67
2019-01-30T10:39:40.080Z,993.65
2019-01-30T10:40:41.078Z,993.66
2019-01-30T10:41:41.000Z,993.6
2019-01-30T10:42:40.438Z,993.63
2019-01-30T10:43:40.123Z,993.62
2019-01-30T10:44:40.121Z,993.64
2019-01-30T10:45:40.617Z,993.64
2019-01-30T10:46:40.272Z,993.67
2019-01-30T10:47:40.609Z,993.69
2019-01-30T10:48:40.151Z,993.64
2019-01-30T10:49:40.540Z,993.66
2019-01-30T10:50:40.194Z,993.7
2019-01-30T10:51:40.176Z,993.72
2019-01-30T10:52:40.347Z,993.73
2019-01-30T10:53:40.286Z,993.77
2019-01-30T10:54:40.047Z,993.75
2019-01-30T10:55:40.037Z,993.72
2019-01-30T10:56:40.128Z,993.74
2019-01-30T10:57:40.062Z,993.71
2019-01-30T10:58:40.106Z,993.76
2019-01-30T10:59:40.069Z,993.73
2019-01-30T11:00:40.095Z,993.76
2019-01-30T11:01:40.176Z,993.73
2019-01-30T11:02:40.119Z,993.68
2019-01-30T11:03:39.997Z,993.65
2019-01-30T11:04:40.061Z,993.74
2019-01-30T11:05:40.056Z,993.76
2019-01-30T11:06:40.097Z,993.69
2019-01-30T11:07:40.001Z,993.7
2019-01-30T11:08:40.314Z,993.72
2019-01-30T11:09:40.047Z,993.73
2019-01-30T11:10:40.081Z,993.7
2019-01-30T11:11:40.110Z,993.7
2019-01-30T11:12:40.078Z,993.7
2019-01-30T11:13:40.805Z,993.71
2019-01-30T11:14:41.215Z,993.74
2019-01-30T11:15:40.197Z,993.79
2019-01-30T11:16:40.410Z,993.71
2019-01-30T11:17:40.307Z,993.67
2019-01-30T11:18:40.451Z,993.76
2019-01-30T11:19:40.094Z,993.8
2019-01-30T11:20:40.045Z,993.67
2019-01-30T11:21:40.548Z,993.74
2019-01-30T11:22:40.195Z,993.75
2019-01-30T11:23:40.266Z,993.66
2019-01-30T11:24:40.167Z,993.68
2019-01-30T11:25:40.104Z,993.76
2019-01-30T11:26:40.453Z,993.72
2019-01-30T11:27:40.076Z,993.63
2019-01-30T11:28:40.179Z,993.79
2019-01-30T11:29:40.119Z,993.78
2019-01-30T11:30:40.921Z,993.73
2019-01-30T11:31:41.308Z,993.71
2019-01-30T11:32:40.054Z,993.74
2019-01-30T11:33:40.779Z,993.8
2019-01-30T11:34:40.077Z,993.7
2019-01-30T11:35:40.095Z,993.69
2019-01-30T11:36:40.760Z,993.74
2019-01-30T11:37:40.969Z,993.75
2019-01-30T11:38:40.256Z,993.71
2019-01-30T11:39:40.992Z,993.82
2019-01-30T11:40:40.499Z,993.78
2019-01-30T11:41:41.219Z,993.69
2019-01-30T11:42:40.034Z,993.74
2019-01-30T11:43:41.131Z,993.72
2019-01-30T11:44:40.125Z,993.82
2019-01-30T11:45:40.333Z,993.82
2019-01-30T11:46:40.313Z,993.82
2019-01-30T11:47:40.069Z,993.87
2019-01-30T11:48:40.330Z,993.88
2019-01-30T11:49:40.225Z,993.84
2019-01-30T11:50:40.255Z,993.81
2019-01-30T11:51:39.987Z,993.92
2019-01-30T11:52:40.871Z,994.01
2019-01-30T11:53:40.263Z,993.96
2019-01-30T11:54:40.782Z,993.97
2019-01-30T11:55:40.458Z,993.95
2019-01-30T11:56:41.211Z,993.97
2019-01-30T11:57:40.034Z,993.98
2019-01-30T11:58:40.084Z,993.96
2019-01-30T11:59:40.300Z,994.01
2019-01-30T12:00:40.241Z,994
2019-01-30T12:01:40.631Z,993.9
2019-01-30T12:02:48.306Z,993.99
2019-01-30T12:03:39.999Z,993.99
2019-01-30T12:04:40.323Z,994.02
2019-01-30T12:05:40.396Z,994.07
2019-01-30T12:06:40.151Z,994.04
2019-01-30T12:07:40.256Z,994.04
2019-01-30T12:08:40.145Z,994.02
2019-01-30T12:09:40.262Z,994.01
2019-01-30T12:10:40.018Z,994.03
2019-01-30T12:11:39.951Z,994.16
2019-01-30T12:12:40.290Z,994.08
2019-01-30T12:13:40.298Z,994.03
2019-01-30T12:14:39.990Z,994.11
2019-01-30T12:15:40.095Z,994.11
2019-01-30T12:16:40.319Z,994.17
2019-01-30T12:17:40.206Z,994.09
2019-01-30T12:18:40.339Z,994.07
2019-01-30T12:19:40.082Z,993.96
2019-01-30T12:20:40.104Z,994.09
2019-01-30T12:21:40.095Z,994.14
2019-01-30T12:22:40.044Z,994.2
2019-01-30T12:23:40.035Z,994.2
2019-01-30T12:24:40.185Z,994.25
2019-01-30T12:25:40.120Z,994.2
2019-01-30T12:26:40.165Z,994.19
2019-01-30T12:27:40.174Z,994.3
2019-01-30T12:28:40.009Z,994.24
2019-01-30T12:29:40.328Z,994.31
2019-01-30T12:30:39.963Z,994.45
2019-01-30T12:31:40.312Z,994.38
2019-01-30T12:32:39.964Z,994.26